sensor_id;sensor_type;location;lat;lon;timestamp;P1;durP1;ratioP1;P2;durP2;ratioP2
52450;SDS011;38366;53.176;6.540;2022-11-28T00:01:04;13.70;;;7.68;;
52450;SDS011;38366;53.176;6.540;2022-11-28T00:03:31;15.80;;;7.75;;
52450;SDS011;38366;53.176;6.540;2022-11-28T00:06:04;13.43;;;7.35;;
52450;SDS011;38366;53.176;6.540;2022-11-28T00:08:33;14.23;;;7.55;;
52450;SDS011;38366;53.176;6.540;2022-11-28T00:11:06;12.98;;;7.65;;
52450;SDS011;38366;53.176;6.540;2022-11-28T00:13:33;13.07;;;7.03;;
52450;SDS011;38366;53.176;6.540;2022-11-28T00:16:01;11.60;;;7.32;;
52450;SDS011;38366;53.176;6.540;2022-11-28T00:18:28;13.90;;;7.05;;
52450;SDS011;38366;53.176;6.540;2022-11-28T00:23:27;12.48;;;6.60;;
52450;SDS011;38366;53.176;6.540;2022-11-28T00:26:00;12.32;;;6.30;;
52450;SDS011;38366;53.176;6.540;2022-11-28T00:28:33;14.35;;;7.13;;
52450;SDS011;38366;53.176;6.540;2022-11-28T00:30:59;12.27;;;6.25;;
52450;SDS011;38366;53.176;6.540;2022-11-28T00:33:25;11.10;;;5.90;;
52450;SDS011;38366;53.176;6.540;2022-11-28T00:35:56;10.70;;;5.40;;
52450;SDS011;38366;53.176;6.540;2022-11-28T00:38:25;12.18;;;6.28;;
52450;SDS011;38366;53.176;6.540;2022-11-28T00:40:58;13.27;;;6.50;;
52450;SDS011;38366;53.176;6.540;2022-11-28T00:43:25;9.27;;;6.05;;
52450;SDS011;38366;53.176;6.540;2022-11-28T00:45:51;12.68;;;5.78;;
52450;SDS011;38366;53.176;6.540;2022-11-28T00:48:16;10.83;;;5.60;;
52450;SDS011;38366;53.176;6.540;2022-11-28T00:50:42;9.87;;;5.43;;
52450;SDS011;38366;53.176;6.540;2022-11-28T00:53:08;9.70;;;5.03;;
52450;SDS011;38366;53.176;6.540;2022-11-28T00:55:33;10.20;;;5.97;;
52450;SDS011;38366;53.176;6.540;2022-11-28T00:58:02;14.45;;;5.63;;
52450;SDS011;38366;53.176;6.540;2022-11-28T01:00:28;10.93;;;5.82;;
52450;SDS011;38366;53.176;6.540;2022-11-28T01:02:54;9.52;;;5.57;;
52450;SDS011;38366;53.176;6.540;2022-11-28T01:05:20;12.25;;;6.38;;
52450;SDS011;38366;53.176;6.540;2022-11-28T01:07:46;11.65;;;5.65;;
52450;SDS011;38366;53.176;6.540;2022-11-28T01:10:14;10.50;;;5.90;;
52450;SDS011;38366;53.176;6.540;2022-11-28T01:12:40;11.98;;;6.35;;
52450;SDS011;38366;53.176;6.540;2022-11-28T01:15:06;11.17;;;5.83;;
52450;SDS011;38366;53.176;6.540;2022-11-28T01:17:34;11.82;;;5.95;;
52450;SDS011;38366;53.176;6.540;2022-11-28T01:20:00;11.25;;;5.93;;
52450;SDS011;38366;53.176;6.540;2022-11-28T01:22:27;10.98;;;6.38;;
52450;SDS011;38366;53.176;6.540;2022-11-28T01:24:53;10.17;;;6.10;;
52450;SDS011;38366;53.176;6.540;2022-11-28T01:27:18;12.37;;;5.77;;
52450;SDS011;38366;53.176;6.540;2022-11-28T01:29:44;11.23;;;5.07;;
52450;SDS011;38366;53.176;6.540;2022-11-28T01:32:10;9.07;;;5.23;;
52450;SDS011;38366;53.176;6.540;2022-11-28T01:34:35;11.43;;;5.90;;
52450;SDS011;38366;53.176;6.540;2022-11-28T01:37:01;11.57;;;5.80;;
52450;SDS011;38366;53.176;6.540;2022-11-28T01:39:27;10.15;;;6.25;;
52450;SDS011;38366;53.176;6.540;2022-11-28T01:41:52;12.82;;;6.18;;
52450;SDS011;38366;53.176;6.540;2022-11-28T01:46:44;10.63;;;6.47;;
52450;SDS011;38366;53.176;6.540;2022-11-28T01:51:43;10.00;;;5.88;;
52450;SDS011;38366;53.176;6.540;2022-11-28T01:54:13;14.65;;;6.78;;
52450;SDS011;38366;53.176;6.540;2022-11-28T01:56:42;11.55;;;6.78;;
52450;SDS011;38366;53.176;6.540;2022-11-28T01:59:15;11.18;;;7.20;;
52450;SDS011;38366;53.176;6.540;2022-11-28T02:01:41;10.55;;;5.90;;
52450;SDS011;38366;53.176;6.540;2022-11-28T02:04:08;11.63;;;6.88;;
52450;SDS011;38366;53.176;6.540;2022-11-28T02:06:34;14.85;;;7.28;;
52450;SDS011;38366;53.176;6.540;2022-11-28T02:09:00;14.15;;;8.20;;
52450;SDS011;38366;53.176;6.540;2022-11-28T02:31:01;18.17;;;9.38;;
52450;SDS011;38366;53.176;6.540;2022-11-28T02:33:40;17.48;;;8.93;;
52450;SDS011;38366;53.176;6.540;2022-11-28T02:36:14;21.48;;;9.98;;
52450;SDS011;38366;53.176;6.540;2022-11-28T02:38:50;19.50;;;8.70;;
52450;SDS011;38366;53.176;6.540;2022-11-28T02:41:42;19.35;;;10.52;;
52450;SDS011;38366;53.176;6.540;2022-11-28T02:44:22;17.73;;;10.43;;
52450;SDS011;38366;53.176;6.540;2022-11-28T02:47:04;16.55;;;9.68;;
52450;SDS011;38366;53.176;6.540;2022-11-28T02:49:40;18.60;;;10.43;;
52450;SDS011;38366;53.176;6.540;2022-11-28T02:52:14;20.73;;;10.45;;
52450;SDS011;38366;53.176;6.540;2022-11-28T02:54:43;18.42;;;9.88;;
52450;SDS011;38366;53.176;6.540;2022-11-28T02:57:10;19.02;;;10.93;;
52450;SDS011;38366;53.176;6.540;2022-11-28T03:02:02;20.50;;;9.80;;
52450;SDS011;38366;53.176;6.540;2022-11-28T03:07:37;19.95;;;10.40;;
52450;SDS011;38366;53.176;6.540;2022-11-28T03:15:43;23.65;;;10.18;;
52450;SDS011;38366;53.176;6.540;2022-11-28T03:18:25;18.80;;;9.77;;
52450;SDS011;38366;53.176;6.540;2022-11-28T03:21:06;18.60;;;10.23;;
52450;SDS011;38366;53.176;6.540;2022-11-28T03:23:56;20.27;;;10.15;;
52450;SDS011;38366;53.176;6.540;2022-11-28T03:26:41;16.55;;;9.63;;
52450;SDS011;38366;53.176;6.540;2022-11-28T03:29:31;22.23;;;11.23;;
52450;SDS011;38366;53.176;6.540;2022-11-28T03:32:09;18.92;;;11.07;;
52450;SDS011;38366;53.176;6.540;2022-11-28T03:34:42;18.42;;;10.63;;
52450;SDS011;38366;53.176;6.540;2022-11-28T03:37:12;21.95;;;11.23;;
52450;SDS011;38366;53.176;6.540;2022-11-28T03:39:48;24.73;;;12.18;;
52450;SDS011;38366;53.176;6.540;2022-11-28T03:42:23;17.25;;;9.52;;
52450;SDS011;38366;53.176;6.540;2022-11-28T03:45:06;21.48;;;12.40;;
52450;SDS011;38366;53.176;6.540;2022-11-28T03:47:48;21.70;;;11.68;;
52450;SDS011;38366;53.176;6.540;2022-11-28T03:50:26;24.73;;;11.95;;
52450;SDS011;38366;53.176;6.540;2022-11-28T03:52:59;22.88;;;12.25;;
52450;SDS011;38366;53.176;6.540;2022-11-28T03:55:32;22.42;;;12.52;;
52450;SDS011;38366;53.176;6.540;2022-11-28T03:58:07;23.92;;;12.45;;
52450;SDS011;38366;53.176;6.540;2022-11-28T04:00:43;23.52;;;13.50;;
52450;SDS011;38366;53.176;6.540;2022-11-28T04:03:21;22.45;;;11.50;;
52450;SDS011;38366;53.176;6.540;2022-11-28T04:06:02;28.63;;;13.50;;
52450;SDS011;38366;53.176;6.540;2022-11-28T04:08:48;26.73;;;14.52;;
52450;SDS011;38366;53.176;6.540;2022-11-28T04:11:26;24.05;;;12.30;;
52450;SDS011;38366;53.176;6.540;2022-11-28T04:17:03;19.98;;;11.57;;
52450;SDS011;38366;53.176;6.540;2022-11-28T04:22:47;28.30;;;15.35;;
52450;SDS011;38366;53.176;6.540;2022-11-28T04:25:24;24.10;;;13.20;;
52450;SDS011;38366;53.176;6.540;2022-11-28T04:27:56;29.40;;;15.77;;
52450;SDS011;38366;53.176;6.540;2022-11-28T04:30:26;28.92;;;16.73;;
52450;SDS011;38366;53.176;6.540;2022-11-28T04:32:54;26.52;;;13.77;;
52450;SDS011;38366;53.176;6.540;2022-11-28T04:35:36;23.83;;;11.88;;
52450;SDS011;38366;53.176;6.540;2022-11-28T04:38:05;24.15;;;13.40;;
52450;SDS011;38366;53.176;6.540;2022-11-28T04:40:33;30.73;;;15.30;;
52450;SDS011;38366;53.176;6.540;2022-11-28T04:43:12;26.60;;;14.50;;
52450;SDS011;38366;53.176;6.540;2022-11-28T04:45:50;25.00;;;13.65;;
52450;SDS011;38366;53.176;6.540;2022-11-28T04:48:33;30.77;;;15.37;;
52450;SDS011;38366;53.176;6.540;2022-11-28T04:51:18;29.17;;;14.98;;
52450;SDS011;38366;53.176;6.540;2022-11-28T04:53:53;30.42;;;16.05;;
52450;SDS011;38366;53.176;6.540;2022-11-28T04:57:08;27.13;;;14.32;;
52450;SDS011;38366;53.176;6.540;2022-11-28T04:59:19;31.33;;;16.38;;
52450;SDS011;38366;53.176;6.540;2022-11-28T05:01:48;29.23;;;15.35;;
52450;SDS011;38366;53.176;6.540;2022-11-28T05:06:41;23.17;;;12.65;;
52450;SDS011;38366;53.176;6.540;2022-11-28T05:09:08;28.98;;;14.98;;
52450;SDS011;38366;53.176;6.540;2022-11-28T05:11:35;25.98;;;15.25;;
52450;SDS011;38366;53.176;6.540;2022-11-28T05:14:01;24.15;;;12.73;;
52450;SDS011;38366;53.176;6.540;2022-11-28T05:16:26;26.80;;;14.60;;
52450;SDS011;38366;53.176;6.540;2022-11-28T05:18:52;31.80;;;16.57;;
52450;SDS011;38366;53.176;6.540;2022-11-28T05:21:18;25.13;;;13.33;;
52450;SDS011;38366;53.176;6.540;2022-11-28T05:23:44;27.27;;;15.02;;
52450;SDS011;38366;53.176;6.540;2022-11-28T05:26:11;24.77;;;15.23;;
52450;SDS011;38366;53.176;6.540;2022-11-28T05:28:38;22.20;;;11.40;;
52450;SDS011;38366;53.176;6.540;2022-11-28T05:31:11;28.17;;;16.08;;
52450;SDS011;38366;53.176;6.540;2022-11-28T05:33:38;23.88;;;13.65;;
52450;SDS011;38366;53.176;6.540;2022-11-28T05:36:09;22.20;;;11.50;;
52450;SDS011;38366;53.176;6.540;2022-11-28T05:38:36;25.15;;;13.82;;
52450;SDS011;38366;53.176;6.540;2022-11-28T05:41:02;23.92;;;13.98;;
52450;SDS011;38366;53.176;6.540;2022-11-28T05:43:28;23.13;;;13.95;;
52450;SDS011;38366;53.176;6.540;2022-11-28T05:45:54;25.85;;;13.05;;
52450;SDS011;38366;53.176;6.540;2022-11-28T05:48:20;30.75;;;14.73;;
52450;SDS011;38366;53.176;6.540;2022-11-28T05:50:46;26.35;;;14.27;;
52450;SDS011;38366;53.176;6.540;2022-11-28T05:53:15;22.90;;;13.05;;
52450;SDS011;38366;53.176;6.540;2022-11-28T05:55:41;25.80;;;14.88;;
52450;SDS011;38366;53.176;6.540;2022-11-28T05:58:07;20.75;;;12.32;;
52450;SDS011;38366;53.176;6.540;2022-11-28T06:00:32;23.87;;;13.40;;
52450;SDS011;38366;53.176;6.540;2022-11-28T06:03:00;21.85;;;13.30;;
52450;SDS011;38366;53.176;6.540;2022-11-28T06:05:27;23.27;;;13.98;;
52450;SDS011;38366;53.176;6.540;2022-11-28T06:07:53;26.30;;;15.37;;
52450;SDS011;38366;53.176;6.540;2022-11-28T06:10:18;27.77;;;15.27;;
52450;SDS011;38366;53.176;6.540;2022-11-28T06:12:46;27.52;;;14.88;;
52450;SDS011;38366;53.176;6.540;2022-11-28T06:15:12;21.30;;;12.82;;
52450;SDS011;38366;53.176;6.540;2022-11-28T06:17:38;24.42;;;13.27;;
52450;SDS011;38366;53.176;6.540;2022-11-28T06:20:04;22.67;;;13.75;;
52450;SDS011;38366;53.176;6.540;2022-11-28T06:22:32;22.95;;;12.25;;
52450;SDS011;38366;53.176;6.540;2022-11-28T06:24:57;27.80;;;13.18;;
52450;SDS011;38366;53.176;6.540;2022-11-28T06:27:23;25.10;;;13.47;;
52450;SDS011;38366;53.176;6.540;2022-11-28T06:29:49;16.75;;;10.27;;
52450;SDS011;38366;53.176;6.540;2022-11-28T06:32:15;22.70;;;12.13;;
52450;SDS011;38366;53.176;6.540;2022-11-28T06:34:40;22.47;;;12.43;;
52450;SDS011;38366;53.176;6.540;2022-11-28T06:37:06;22.50;;;11.27;;
52450;SDS011;38366;53.176;6.540;2022-11-28T06:39:32;23.10;;;12.93;;
52450;SDS011;38366;53.176;6.540;2022-11-28T06:41:58;17.98;;;10.20;;
52450;SDS011;38366;53.176;6.540;2022-11-28T06:44:23;22.77;;;10.73;;
52450;SDS011;38366;53.176;6.540;2022-11-28T06:46:49;20.73;;;11.33;;
52450;SDS011;38366;53.176;6.540;2022-11-28T06:49:15;19.43;;;11.97;;
52450;SDS011;38366;53.176;6.540;2022-11-28T06:51:41;20.10;;;9.70;;
52450;SDS011;38366;53.176;6.540;2022-11-28T06:54:07;16.88;;;9.20;;
52450;SDS011;38366;53.176;6.540;2022-11-28T06:56:33;20.50;;;11.27;;
52450;SDS011;38366;53.176;6.540;2022-11-28T06:58:59;20.65;;;11.10;;
52450;SDS011;38366;53.176;6.540;2022-11-28T07:01:26;19.55;;;8.35;;
52450;SDS011;38366;53.176;6.540;2022-11-28T07:03:53;18.98;;;10.40;;
52450;SDS011;38366;53.176;6.540;2022-11-28T07:06:20;20.90;;;9.43;;
52450;SDS011;38366;53.176;6.540;2022-11-28T07:08:46;21.65;;;11.55;;
52450;SDS011;38366;53.176;6.540;2022-11-28T07:11:13;21.98;;;11.68;;
52450;SDS011;38366;53.176;6.540;2022-11-28T07:13:41;18.02;;;10.05;;
52450;SDS011;38366;53.176;6.540;2022-11-28T07:18:59;17.77;;;10.45;;
52450;SDS011;38366;53.176;6.540;2022-11-28T07:21:25;21.50;;;12.00;;
52450;SDS011;38366;53.176;6.540;2022-11-28T07:23:51;18.90;;;11.35;;
52450;SDS011;38366;53.176;6.540;2022-11-28T07:26:18;19.55;;;9.88;;
52450;SDS011;38366;53.176;6.540;2022-11-28T07:28:45;21.75;;;11.70;;
52450;SDS011;38366;53.176;6.540;2022-11-28T07:33:38;22.02;;;11.80;;
52450;SDS011;38366;53.176;6.540;2022-11-28T07:36:06;19.45;;;10.23;;
52450;SDS011;38366;53.176;6.540;2022-11-28T07:38:35;17.20;;;10.30;;
52450;SDS011;38366;53.176;6.540;2022-11-28T07:41:11;20.02;;;10.13;;
52450;SDS011;38366;53.176;6.540;2022-11-28T07:43:38;16.75;;;9.48;;
52450;SDS011;38366;53.176;6.540;2022-11-28T07:46:05;19.27;;;11.18;;
52450;SDS011;38366;53.176;6.540;2022-11-28T07:48:33;18.90;;;10.57;;
52450;SDS011;38366;53.176;6.540;2022-11-28T07:50:59;20.95;;;11.52;;
52450;SDS011;38366;53.176;6.540;2022-11-28T07:53:28;18.27;;;9.98;;
52450;SDS011;38366;53.176;6.540;2022-11-28T07:55:54;20.53;;;10.77;;
52450;SDS011;38366;53.176;6.540;2022-11-28T07:58:19;23.33;;;11.05;;
52450;SDS011;38366;53.176;6.540;2022-11-28T08:00:46;14.85;;;7.78;;
52450;SDS011;38366;53.176;6.540;2022-11-28T08:03:12;20.30;;;11.50;;
52450;SDS011;38366;53.176;6.540;2022-11-28T08:05:38;20.48;;;11.10;;
52450;SDS011;38366;53.176;6.540;2022-11-28T08:08:04;20.67;;;10.27;;
52450;SDS011;38366;53.176;6.540;2022-11-28T08:10:29;22.55;;;10.55;;
52450;SDS011;38366;53.176;6.540;2022-11-28T08:12:55;18.17;;;9.67;;
52450;SDS011;38366;53.176;6.540;2022-11-28T08:15:21;22.67;;;11.90;;
52450;SDS011;38366;53.176;6.540;2022-11-28T08:17:46;21.73;;;11.70;;
52450;SDS011;38366;53.176;6.540;2022-11-28T08:20:12;23.02;;;12.52;;
52450;SDS011;38366;53.176;6.540;2022-11-28T08:22:38;19.67;;;10.07;;
52450;SDS011;38366;53.176;6.540;2022-11-28T08:25:04;22.70;;;11.48;;
52450;SDS011;38366;53.176;6.540;2022-11-28T08:27:30;25.33;;;11.02;;
52450;SDS011;38366;53.176;6.540;2022-11-28T08:29:57;23.15;;;13.15;;
52450;SDS011;38366;53.176;6.540;2022-11-28T08:32:22;25.07;;;12.13;;
52450;SDS011;38366;53.176;6.540;2022-11-28T08:34:48;20.50;;;10.23;;
52450;SDS011;38366;53.176;6.540;2022-11-28T08:37:14;19.83;;;10.67;;
52450;SDS011;38366;53.176;6.540;2022-11-28T08:39:39;18.33;;;9.23;;
52450;SDS011;38366;53.176;6.540;2022-11-28T08:42:05;16.43;;;8.93;;
52450;SDS011;38366;53.176;6.540;2022-11-28T08:44:30;23.43;;;11.97;;
52450;SDS011;38366;53.176;6.540;2022-11-28T08:46:56;19.20;;;10.30;;
52450;SDS011;38366;53.176;6.540;2022-11-28T08:49:22;19.80;;;9.70;;
52450;SDS011;38366;53.176;6.540;2022-11-28T08:51:47;15.70;;;8.83;;
52450;SDS011;38366;53.176;6.540;2022-11-28T08:54:13;17.07;;;9.90;;
52450;SDS011;38366;53.176;6.540;2022-11-28T08:56:39;17.45;;;8.85;;
52450;SDS011;38366;53.176;6.540;2022-11-28T08:59:05;15.73;;;9.30;;
52450;SDS011;38366;53.176;6.540;2022-11-28T09:01:31;15.90;;;8.55;;
52450;SDS011;38366;53.176;6.540;2022-11-28T09:03:57;17.77;;;8.68;;
52450;SDS011;38366;53.176;6.540;2022-11-28T09:06:23;14.90;;;7.95;;
52450;SDS011;38366;53.176;6.540;2022-11-28T09:08:49;16.02;;;8.82;;
52450;SDS011;38366;53.176;6.540;2022-11-28T09:13:42;10.05;;;5.57;;
52450;SDS011;38366;53.176;6.540;2022-11-28T09:16:08;15.07;;;7.57;;
52450;SDS011;38366;53.176;6.540;2022-11-28T09:18:34;13.73;;;7.70;;
52450;SDS011;38366;53.176;6.540;2022-11-28T09:21:01;13.85;;;7.65;;
52450;SDS011;38366;53.176;6.540;2022-11-28T09:23:37;14.63;;;7.80;;
52450;SDS011;38366;53.176;6.540;2022-11-28T09:26:12;13.07;;;7.60;;
52450;SDS011;38366;53.176;6.540;2022-11-28T09:28:39;11.75;;;7.00;;
52450;SDS011;38366;53.176;6.540;2022-11-28T09:31:05;11.20;;;6.03;;
52450;SDS011;38366;53.176;6.540;2022-11-28T09:33:31;14.05;;;6.88;;
52450;SDS011;38366;53.176;6.540;2022-11-28T09:35:57;13.05;;;6.47;;
52450;SDS011;38366;53.176;6.540;2022-11-28T09:38:24;9.88;;;5.63;;
52450;SDS011;38366;53.176;6.540;2022-11-28T09:43:37;11.60;;;4.80;;
52450;SDS011;38366;53.176;6.540;2022-11-28T09:46:06;9.65;;;5.63;;
52450;SDS011;38366;53.176;6.540;2022-11-28T09:48:47;8.90;;;5.55;;
52450;SDS011;38366;53.176;6.540;2022-11-28T09:54:18;9.95;;;5.28;;
52450;SDS011;38366;53.176;6.540;2022-11-28T09:56:56;10.00;;;5.40;;
52450;SDS011;38366;53.176;6.540;2022-11-28T09:59:25;8.60;;;5.68;;
52450;SDS011;38366;53.176;6.540;2022-11-28T10:13:19;10.20;;;5.82;;
52450;SDS011;38366;53.176;6.540;2022-11-28T10:21:00;9.40;;;5.70;;
52450;SDS011;38366;53.176;6.540;2022-11-28T10:23:34;10.20;;;5.30;;
52450;SDS011;38366;53.176;6.540;2022-11-28T10:29:23;9.07;;;4.93;;
52450;SDS011;38366;53.176;6.540;2022-11-28T10:31:56;9.57;;;5.63;;
52450;SDS011;38366;53.176;6.540;2022-11-28T10:37:12;8.73;;;5.25;;
52450;SDS011;38366;53.176;6.540;2022-11-28T10:39:49;9.07;;;5.20;;
52450;SDS011;38366;53.176;6.540;2022-11-28T10:42:21;8.75;;;5.43;;
52450;SDS011;38366;53.176;6.540;2022-11-28T10:50:11;11.20;;;5.88;;
52450;SDS011;38366;53.176;6.540;2022-11-28T10:52:47;9.65;;;5.93;;
52450;SDS011;38366;53.176;6.540;2022-11-28T10:55:18;10.00;;;6.32;;
52450;SDS011;38366;53.176;6.540;2022-11-28T10:58:21;9.00;;;5.20;;
52450;SDS011;38366;53.176;6.540;2022-11-28T11:00:51;8.70;;;4.93;;
52450;SDS011;38366;53.176;6.540;2022-11-28T11:03:21;10.05;;;5.78;;
52450;SDS011;38366;53.176;6.540;2022-11-28T11:05:52;8.50;;;5.30;;
52450;SDS011;38366;53.176;6.540;2022-11-28T11:08:23;8.90;;;5.20;;
52450;SDS011;38366;53.176;6.540;2022-11-28T11:19:28;10.63;;;5.82;;
52450;SDS011;38366;53.176;6.540;2022-11-28T11:22:16;11.98;;;5.78;;
52450;SDS011;38366;53.176;6.540;2022-11-28T11:27:36;10.40;;;5.95;;
52450;SDS011;38366;53.176;6.540;2022-11-28T11:30:17;11.38;;;6.07;;
52450;SDS011;38366;53.176;6.540;2022-11-28T11:32:58;8.93;;;5.18;;
52450;SDS011;38366;53.176;6.540;2022-11-28T11:35:27;9.85;;;5.53;;
52450;SDS011;38366;53.176;6.540;2022-11-28T11:43:26;9.77;;;5.72;;
52450;SDS011;38366;53.176;6.540;2022-11-28T11:51:07;10.75;;;6.70;;
52450;SDS011;38366;53.176;6.540;2022-11-28T11:53:44;10.52;;;6.28;;
52450;SDS011;38366;53.176;6.540;2022-11-28T11:56:10;10.07;;;5.30;;
52450;SDS011;38366;53.176;6.540;2022-11-28T11:58:45;10.77;;;5.82;;
52450;SDS011;38366;53.176;6.540;2022-11-28T12:01:15;10.77;;;6.30;;
52450;SDS011;38366;53.176;6.540;2022-11-28T12:06:21;9.95;;;5.20;;
52450;SDS011;38366;53.176;6.540;2022-11-28T12:09:01;10.35;;;5.85;;
52450;SDS011;38366;53.176;6.540;2022-11-28T12:11:55;12.70;;;6.82;;
52450;SDS011;38366;53.176;6.540;2022-11-28T12:14:30;10.50;;;5.80;;
52450;SDS011;38366;53.176;6.540;2022-11-28T12:24:59;11.35;;;6.70;;
52450;SDS011;38366;53.176;6.540;2022-11-28T12:27:42;12.95;;;7.78;;
52450;SDS011;38366;53.176;6.540;2022-11-28T12:35:38;11.38;;;6.97;;
52450;SDS011;38366;53.176;6.540;2022-11-28T12:46:34;10.27;;;6.18;;
52450;SDS011;38366;53.176;6.540;2022-11-28T13:00:18;10.18;;;5.57;;
52450;SDS011;38366;53.176;6.540;2022-11-28T13:06:12;8.13;;;5.20;;
52450;SDS011;38366;53.176;6.540;2022-11-28T13:11:13;8.30;;;5.15;;
52450;SDS011;38366;53.176;6.540;2022-11-28T13:13:52;9.65;;;5.35;;
52450;SDS011;38366;53.176;6.540;2022-11-28T13:16:42;10.18;;;5.22;;
52450;SDS011;38366;53.176;6.540;2022-11-28T13:21:51;8.23;;;5.00;;
52450;SDS011;38366;53.176;6.540;2022-11-28T13:27:56;9.02;;;5.55;;
52450;SDS011;38366;53.176;6.540;2022-11-28T13:30:25;10.20;;;5.65;;
52450;SDS011;38366;53.176;6.540;2022-11-28T13:35:48;9.27;;;5.82;;
52450;SDS011;38366;53.176;6.540;2022-11-28T13:38:16;11.07;;;5.78;;
52450;SDS011;38366;53.176;6.540;2022-11-28T13:40:50;10.30;;;5.30;;
52450;SDS011;38366;53.176;6.540;2022-11-28T13:46:16;7.10;;;4.43;;
52450;SDS011;38366;53.176;6.540;2022-11-28T13:53:37;9.07;;;5.05;;
52450;SDS011;38366;53.176;6.540;2022-11-28T13:58:30;7.87;;;4.70;;
52450;SDS011;38366;53.176;6.540;2022-11-28T14:01:13;9.85;;;4.88;;
52450;SDS011;38366;53.176;6.540;2022-11-28T14:06:14;10.38;;;5.20;;
52450;SDS011;38366;53.176;6.540;2022-11-28T14:08:45;11.40;;;5.65;;
52450;SDS011;38366;53.176;6.540;2022-11-28T14:11:22;10.07;;;5.75;;
52450;SDS011;38366;53.176;6.540;2022-11-28T14:17:21;10.40;;;6.03;;
52450;SDS011;38366;53.176;6.540;2022-11-28T14:20:23;10.18;;;5.25;;
52450;SDS011;38366;53.176;6.540;2022-11-28T14:25:42;8.70;;;5.35;;
52450;SDS011;38366;53.176;6.540;2022-11-28T14:30:49;9.63;;;5.90;;
52450;SDS011;38366;53.176;6.540;2022-11-28T14:33:17;12.95;;;6.07;;
52450;SDS011;38366;53.176;6.540;2022-11-28T14:56:52;11.18;;;6.57;;
52450;SDS011;38366;53.176;6.540;2022-11-28T14:59:18;13.50;;;6.85;;
52450;SDS011;38366;53.176;6.540;2022-11-28T15:04:38;11.95;;;6.45;;
52450;SDS011;38366;53.176;6.540;2022-11-28T15:07:09;12.15;;;6.97;;
52450;SDS011;38366;53.176;6.540;2022-11-28T15:09:55;12.80;;;7.15;;
52450;SDS011;38366;53.176;6.540;2022-11-28T15:15:02;16.98;;;8.00;;
52450;SDS011;38366;53.176;6.540;2022-11-28T15:17:32;16.50;;;8.50;;
52450;SDS011;38366;53.176;6.540;2022-11-28T15:20:01;14.38;;;7.57;;
52450;SDS011;38366;53.176;6.540;2022-11-28T15:22:38;16.40;;;8.45;;
52450;SDS011;38366;53.176;6.540;2022-11-28T15:25:25;22.80;;;9.68;;
52450;SDS011;38366;53.176;6.540;2022-11-28T15:28:13;18.88;;;8.77;;
52450;SDS011;38366;53.176;6.540;2022-11-28T15:30:43;21.15;;;8.85;;
52450;SDS011;38366;53.176;6.540;2022-11-28T15:33:11;21.05;;;8.98;;
52450;SDS011;38366;53.176;6.540;2022-11-28T15:35:38;25.35;;;10.75;;
52450;SDS011;38366;53.176;6.540;2022-11-28T15:38:16;24.88;;;9.77;;
52450;SDS011;38366;53.176;6.540;2022-11-28T15:40:47;32.35;;;11.38;;
52450;SDS011;38366;53.176;6.540;2022-11-28T15:43:15;30.70;;;11.13;;
52450;SDS011;38366;53.176;6.540;2022-11-28T15:45:41;26.77;;;9.95;;
52450;SDS011;38366;53.176;6.540;2022-11-28T15:48:22;33.47;;;13.13;;
52450;SDS011;38366;53.176;6.540;2022-11-28T15:50:52;31.95;;;11.98;;
52450;SDS011;38366;53.176;6.540;2022-11-28T15:53:18;30.05;;;11.45;;
52450;SDS011;38366;53.176;6.540;2022-11-28T15:55:45;29.42;;;11.57;;
52450;SDS011;38366;53.176;6.540;2022-11-28T16:00:46;38.72;;;12.60;;
52450;SDS011;38366;53.176;6.540;2022-11-28T16:03:19;38.15;;;13.27;;
52450;SDS011;38366;53.176;6.540;2022-11-28T16:05:48;37.72;;;14.07;;
52450;SDS011;38366;53.176;6.540;2022-11-28T16:08:27;35.78;;;12.63;;
52450;SDS011;38366;53.176;6.540;2022-11-28T16:11:01;33.47;;;12.25;;
52450;SDS011;38366;53.176;6.540;2022-11-28T16:13:29;49.10;;;14.80;;
52450;SDS011;38366;53.176;6.540;2022-11-28T16:15:57;41.97;;;13.27;;
52450;SDS011;38366;53.176;6.540;2022-11-28T16:18:25;51.53;;;14.82;;
52450;SDS011;38366;53.176;6.540;2022-11-28T16:20:53;43.55;;;13.77;;
52450;SDS011;38366;53.176;6.540;2022-11-28T16:23:32;52.80;;;15.05;;
52450;SDS011;38366;53.176;6.540;2022-11-28T16:28:28;60.45;;;17.55;;
52450;SDS011;38366;53.176;6.540;2022-11-28T16:31:09;55.20;;;15.73;;
52450;SDS011;38366;53.176;6.540;2022-11-28T16:33:39;61.75;;;17.02;;
52450;SDS011;38366;53.176;6.540;2022-11-28T16:36:51;49.85;;;14.93;;
52450;SDS011;38366;53.176;6.540;2022-11-28T16:41:39;52.85;;;15.38;;
52450;SDS011;38366;53.176;6.540;2022-11-28T16:44:28;60.83;;;17.40;;
52450;SDS011;38366;53.176;6.540;2022-11-28T16:46:55;67.28;;;16.85;;
52450;SDS011;38366;53.176;6.540;2022-11-28T16:49:35;45.30;;;13.90;;
52450;SDS011;38366;53.176;6.540;2022-11-28T16:54:49;62.63;;;15.67;;
52450;SDS011;38366;53.176;6.540;2022-11-28T16:57:16;71.18;;;17.30;;
52450;SDS011;38366;53.176;6.540;2022-11-28T16:59:43;60.97;;;15.20;;
52450;SDS011;38366;53.176;6.540;2022-11-28T17:04:45;63.83;;;17.02;;
52450;SDS011;38366;53.176;6.540;2022-11-28T17:07:13;63.00;;;16.08;;
52450;SDS011;38366;53.176;6.540;2022-11-28T17:09:41;70.97;;;17.45;;
52450;SDS011;38366;53.176;6.540;2022-11-28T17:14:53;74.57;;;17.83;;
52450;SDS011;38366;53.176;6.540;2022-11-28T17:17:21;83.63;;;18.52;;
52450;SDS011;38366;53.176;6.540;2022-11-28T17:19:47;93.53;;;18.67;;
52450;SDS011;38366;53.176;6.540;2022-11-28T17:22:23;64.07;;;15.95;;
52450;SDS011;38366;53.176;6.540;2022-11-28T17:24:58;82.82;;;17.42;;
52450;SDS011;38366;53.176;6.540;2022-11-28T17:27:24;80.57;;;17.50;;
52450;SDS011;38366;53.176;6.540;2022-11-28T17:29:51;76.80;;;18.27;;
52450;SDS011;38366;53.176;6.540;2022-11-28T17:32:16;83.35;;;18.05;;
52450;SDS011;38366;53.176;6.540;2022-11-28T17:34:42;97.80;;;18.23;;
52450;SDS011;38366;53.176;6.540;2022-11-28T17:37:10;101.10;;;20.08;;
52450;SDS011;38366;53.176;6.540;2022-11-28T17:39:36;93.57;;;17.95;;
52450;SDS011;38366;53.176;6.540;2022-11-28T17:42:02;110.75;;;20.33;;
52450;SDS011;38366;53.176;6.540;2022-11-28T17:44:33;89.88;;;17.92;;
52450;SDS011;38366;53.176;6.540;2022-11-28T17:47:01;117.55;;;21.30;;
52450;SDS011;38366;53.176;6.540;2022-11-28T17:49:28;88.13;;;19.70;;
52450;SDS011;38366;53.176;6.540;2022-11-28T17:51:57;110.00;;;20.00;;
52450;SDS011;38366;53.176;6.540;2022-11-28T17:54:24;139.55;;;21.50;;
52450;SDS011;38366;53.176;6.540;2022-11-28T17:56:51;169.48;;;25.02;;
52450;SDS011;38366;53.176;6.540;2022-11-28T17:59:18;148.02;;;23.92;;
52450;SDS011;38366;53.176;6.540;2022-11-28T18:01:45;168.73;;;26.15;;
52450;SDS011;38366;53.176;6.540;2022-11-28T18:04:11;110.30;;;21.15;;
52450;SDS011;38366;53.176;6.540;2022-11-28T18:06:37;198.88;;;24.92;;
52450;SDS011;38366;53.176;6.540;2022-11-28T18:09:06;123.50;;;20.33;;
52450;SDS011;38366;53.176;6.540;2022-11-28T18:11:32;132.75;;;21.65;;
52450;SDS011;38366;53.176;6.540;2022-11-28T18:13:59;142.55;;;22.92;;
52450;SDS011;38366;53.176;6.540;2022-11-28T18:16:25;128.43;;;21.37;;
52450;SDS011;38366;53.176;6.540;2022-11-28T18:18:51;119.22;;;20.33;;
52450;SDS011;38366;53.176;6.540;2022-11-28T18:21:17;264.88;;;28.88;;
52450;SDS011;38366;53.176;6.540;2022-11-28T18:23:44;222.07;;;28.13;;
52450;SDS011;38366;53.176;6.540;2022-11-28T18:26:17;146.45;;;23.85;;
52450;SDS011;38366;53.176;6.540;2022-11-28T18:28:45;215.45;;;26.27;;
52450;SDS011;38366;53.176;6.540;2022-11-28T18:31:16;213.02;;;26.10;;